sensor_id;sensor_type;location;lat;lon;timestamp;temperature;humidity
1812;DHT22;904;47.814;11.134;2023-02-03T00:00:56;6.40;78.40
1812;DHT22;904;47.814;11.134;2023-02-03T00:03:23;6.40;78.30
1812;DHT22;904;47.814;11.134;2023-02-03T00:05:50;6.40;78.10
1812;DHT22;904;47.814;11.134;2023-02-03T00:08:19;6.40;78.30
1812;DHT22;904;47.814;11.134;2023-02-03T00:10:48;6.40;78.40
1812;DHT22;904;47.814;11.134;2023-02-03T00:13:16;6.50;77.60
1812;DHT22;904;47.814;11.134;2023-02-03T00:15:44;6.40;77.00
1812;DHT22;904;47.814;11.134;2023-02-03T00:18:11;6.40;77.50
1812;DHT22;904;47.814;11.134;2023-02-03T00:20:39;6.40;77.70
1812;DHT22;904;47.814;11.134;2023-02-03T00:23:07;6.40;77.20
1812;DHT22;904;47.814;11.134;2023-02-03T00:25:35;6.40;77.60
1812;DHT22;904;47.814;11.134;2023-02-03T00:28:03;6.40;77.30
1812;DHT22;904;47.814;11.134;2023-02-03T00:30:30;6.40;77.20
1812;DHT22;904;47.814;11.134;2023-02-03T00:32:58;6.50;77.60
1812;DHT22;904;47.814;11.134;2023-02-03T00:35:26;6.40;77.30
1812;DHT22;904;47.814;11.134;2023-02-03T00:37:54;6.40;77.90
1812;DHT22;904;47.814;11.134;2023-02-03T00:40:23;6.40;77.50
1812;DHT22;904;47.814;11.134;2023-02-03T00:42:51;6.50;76.90
1812;DHT22;904;47.814;11.134;2023-02-03T00:45:19;6.50;75.90
1812;DHT22;904;47.814;11.134;2023-02-03T00:47:47;6.50;75.90
1812;DHT22;904;47.814;11.134;2023-02-03T00:50:16;6.50;75.50
1812;DHT22;904;47.814;11.134;2023-02-03T00:52:43;6.50;75.90
1812;DHT22;904;47.814;11.134;2023-02-03T00:55:10;6.50;75.80
1812;DHT22;904;47.814;11.134;2023-02-03T00:57:37;6.50;75.90
1812;DHT22;904;47.814;11.134;2023-02-03T01:00:06;6.60;75.00
1812;DHT22;904;47.814;11.134;2023-02-03T01:02:34;6.50;75.40
1812;DHT22;904;47.814;11.134;2023-02-03T01:05:01;6.60;74.90
1812;DHT22;904;47.814;11.134;2023-02-03T01:07:32;6.50;75.00
1812;DHT22;904;47.814;11.134;2023-02-03T01:09:59;6.50;75.80
1812;DHT22;904;47.814;11.134;2023-02-03T01:12:28;6.60;75.20
1812;DHT22;904;47.814;11.134;2023-02-03T01:14:55;6.50;75.20
1812;DHT22;904;47.814;11.134;2023-02-03T01:17:22;6.60;75.20
1812;DHT22;904;47.814;11.134;2023-02-03T01:19:50;6.50;75.40
1812;DHT22;904;47.814;11.134;2023-02-03T01:22:18;6.40;75.90
1812;DHT22;904;47.814;11.134;2023-02-03T01:24:47;6.50;75.50
1812;DHT22;904;47.814;11.134;2023-02-03T01:27:14;6.50;74.50
1812;DHT22;904;47.814;11.134;2023-02-03T01:29:41;6.60;74.50
1812;DHT22;904;47.814;11.134;2023-02-03T01:32:08;6.60;74.00
1812;DHT22;904;47.814;11.134;2023-02-03T01:34:35;6.60;74.00
1812;DHT22;904;47.814;11.134;2023-02-03T01:37:02;6.60;73.80
1812;DHT22;904;47.814;11.134;2023-02-03T01:39:29;6.60;74.10
1812;DHT22;904;47.814;11.134;2023-02-03T01:41:58;6.60;74.50
1812;DHT22;904;47.814;11.134;2023-02-03T01:44:38;6.60;74.00
1812;DHT22;904;47.814;11.134;2023-02-03T01:47:12;6.60;73.60
1812;DHT22;904;47.814;11.134;2023-02-03T01:49:43;6.60;73.50
1812;DHT22;904;47.814;11.134;2023-02-03T01:52:12;6.70;73.30
1812;DHT22;904;47.814;11.134;2023-02-03T01:54:43;6.70;73.20
1812;DHT22;904;47.814;11.134;2023-02-03T01:57:16;6.70;73.30
1812;DHT22;904;47.814;11.134;2023-02-03T01:59:45;6.70;72.40
1812;DHT22;904;47.814;11.134;2023-02-03T02:02:12;6.70;72.10
1812;DHT22;904;47.814;11.134;2023-02-03T02:04:48;6.70;72.00
1812;DHT22;904;47.814;11.134;2023-02-03T02:07:18;6.70;72.20
1812;DHT22;904;47.814;11.134;2023-02-03T02:09:46;6.70;72.30
1812;DHT22;904;47.814;11.134;2023-02-03T02:12:14;6.70;71.80
1812;DHT22;904;47.814;11.134;2023-02-03T02:14:43;6.70;71.50
1812;DHT22;904;47.814;11.134;2023-02-03T02:17:21;6.70;71.80
1812;DHT22;904;47.814;11.134;2023-02-03T02:20:23;6.70;72.10
1812;DHT22;904;47.814;11.134;2023-02-03T02:23:40;6.60;72.00
1812;DHT22;904;47.814;11.134;2023-02-03T02:32:23;6.70;71.60
1812;DHT22;904;47.814;11.134;2023-02-03T02:35:00;6.70;70.80
1812;DHT22;904;47.814;11.134;2023-02-03T02:37:41;6.70;70.60
1812;DHT22;904;47.814;11.134;2023-02-03T02:40:19;6.70;70.70
1812;DHT22;904;47.814;11.134;2023-02-03T02:42:59;6.70;70.90
1812;DHT22;904;47.814;11.134;2023-02-03T02:45:30;6.70;70.30
1812;DHT22;904;47.814;11.134;2023-02-03T02:48:04;6.70;71.00
1812;DHT22;904;47.814;11.134;2023-02-03T02:50:37;6.60;70.70
1812;DHT22;904;47.814;11.134;2023-02-03T02:53:07;6.60;71.60
1812;DHT22;904;47.814;11.134;2023-02-03T02:55:37;6.60;71.40
1812;DHT22;904;47.814;11.134;2023-02-03T02:58:08;6.60;71.30
1812;DHT22;904;47.814;11.134;2023-02-03T03:00:37;6.60;70.70
1812;DHT22;904;47.814;11.134;2023-02-03T03:03:17;6.70;70.90
1812;DHT22;904;47.814;11.134;2023-02-03T03:05:50;6.70;70.20
1812;DHT22;904;47.814;11.134;2023-02-03T03:08:20;6.70;69.60
1812;DHT22;904;47.814;11.134;2023-02-03T03:10:50;6.70;70.00
1812;DHT22;904;47.814;11.134;2023-02-03T03:13:21;6.80;70.20
1812;DHT22;904;47.814;11.134;2023-02-03T03:15:51;6.70;69.90
1812;DHT22;904;47.814;11.134;2023-02-03T03:18:24;6.70;69.80
1812;DHT22;904;47.814;11.134;2023-02-03T03:20:55;6.60;69.40
1812;DHT22;904;47.814;11.134;2023-02-03T03:23:25;6.60;69.40
1812;DHT22;904;47.814;11.134;2023-02-03T03:25:58;6.70;69.30
1812;DHT22;904;47.814;11.134;2023-02-03T03:28:34;6.60;68.90
1812;DHT22;904;47.814;11.134;2023-02-03T03:31:03;6.60;69.40
1812;DHT22;904;47.814;11.134;2023-02-03T03:33:32;6.70;69.20
1812;DHT22;904;47.814;11.134;2023-02-03T03:36:02;6.70;70.00
1812;DHT22;904;47.814;11.134;2023-02-03T03:38:35;6.60;69.50
1812;DHT22;904;47.814;11.134;2023-02-03T03:41:09;6.70;69.30
1812;DHT22;904;47.814;11.134;2023-02-03T03:43:42;6.60;69.60
1812;DHT22;904;47.814;11.134;2023-02-03T03:46:13;6.70;68.80
1812;DHT22;904;47.814;11.134;2023-02-03T03:48:48;6.70;68.90
1812;DHT22;904;47.814;11.134;2023-02-03T03:51:20;6.80;68.30
1812;DHT22;904;47.814;11.134;2023-02-03T03:53:49;6.70;68.40
1812;DHT22;904;47.814;11.134;2023-02-03T03:56:21;6.70;68.30
1812;DHT22;904;47.814;11.134;2023-02-03T03:58:51;6.80;68.60
1812;DHT22;904;47.814;11.134;2023-02-03T04:01:20;6.70;68.90
1812;DHT22;904;47.814;11.134;2023-02-03T04:03:53;6.70;69.00
1812;DHT22;904;47.814;11.134;2023-02-03T04:06:22;6.70;69.10
1812;DHT22;904;47.814;11.134;2023-02-03T04:08:54;6.70;69.00
1812;DHT22;904;47.814;11.134;2023-02-03T04:11:21;6.70;68.80
1812;DHT22;904;47.814;11.134;2023-02-03T04:14:06;6.70;68.90
1812;DHT22;904;47.814;11.134;2023-02-03T04:16:33;6.70;69.70
1812;DHT22;904;47.814;11.134;2023-02-03T04:19:01;6.70;68.90
1812;DHT22;904;47.814;11.134;2023-02-03T04:21:29;6.70;69.10
1812;DHT22;904;47.814;11.134;2023-02-03T04:23:56;6.70;69.10
1812;DHT22;904;47.814;11.134;2023-02-03T04:26:23;6.80;68.30
1812;DHT22;904;47.814;11.134;2023-02-03T04:28:50;6.80;67.90
1812;DHT22;904;47.814;11.134;2023-02-03T04:31:17;6.80;68.00
1812;DHT22;904;47.814;11.134;2023-02-03T04:33:44;6.70;68.60
1812;DHT22;904;47.814;11.134;2023-02-03T04:36:13;6.70;68.50
1812;DHT22;904;47.814;11.134;2023-02-03T04:38:41;6.70;68.80
1812;DHT22;904;47.814;11.134;2023-02-03T04:41:08;6.70;68.80
1812;DHT22;904;47.814;11.134;2023-02-03T04:43:35;6.60;69.40
1812;DHT22;904;47.814;11.134;2023-02-03T04:46:02;6.60;69.00
1812;DHT22;904;47.814;11.134;2023-02-03T04:48:29;6.70;68.30
1812;DHT22;904;47.814;11.134;2023-02-03T04:51:00;6.70;68.50
1812;DHT22;904;47.814;11.134;2023-02-03T04:53:30;6.80;68.10
1812;DHT22;904;47.814;11.134;2023-02-03T04:55:57;6.70;68.60
1812;DHT22;904;47.814;11.134;2023-02-03T04:58:24;6.70;68.80
1812;DHT22;904;47.814;11.134;2023-02-03T05:00:52;6.70;68.10
1812;DHT22;904;47.814;11.134;2023-02-03T05:03:20;6.70;68.50
1812;DHT22;904;47.814;11.134;2023-02-03T05:05:48;6.80;68.00
1812;DHT22;904;47.814;11.134;2023-02-03T05:08:15;6.80;67.80
1812;DHT22;904;47.814;11.134;2023-02-03T05:10:44;6.80;68.10
1812;DHT22;904;47.814;11.134;2023-02-03T05:13:12;6.70;68.40
1812;DHT22;904;47.814;11.134;2023-02-03T05:15:39;6.80;68.00
1812;DHT22;904;47.814;11.134;2023-02-03T05:18:06;6.80;67.90
1812;DHT22;904;47.814;11.134;2023-02-03T05:20:33;6.80;68.00
1812;DHT22;904;47.814;11.134;2023-02-03T05:23:00;6.70;68.40
1812;DHT22;904;47.814;11.134;2023-02-03T05:25:27;6.80;68.10
1812;DHT22;904;47.814;11.134;2023-02-03T05:27:56;6.80;68.50
1812;DHT22;904;47.814;11.134;2023-02-03T05:30:23;6.80;68.30
1812;DHT22;904;47.814;11.134;2023-02-03T05:32:51;6.70;68.40
1812;DHT22;904;47.814;11.134;2023-02-03T05:35:18;6.80;68.00
1812;DHT22;904;47.814;11.134;2023-02-03T05:37:45;6.70;68.40
1812;DHT22;904;47.814;11.134;2023-02-03T05:40:13;6.80;68.50
1812;DHT22;904;47.814;11.134;2023-02-03T05:43:00;6.80;68.10
1812;DHT22;904;47.814;11.134;2023-02-03T05:45:27;6.80;67.60
1812;DHT22;904;47.814;11.134;2023-02-03T05:47:54;6.80;67.70
1812;DHT22;904;47.814;11.134;2023-02-03T05:50:21;6.70;68.00
1812;DHT22;904;47.814;11.134;2023-02-03T05:52:49;6.70;68.40
1812;DHT22;904;47.814;11.134;2023-02-03T05:55:16;6.70;68.50
1812;DHT22;904;47.814;11.134;2023-02-03T05:57:43;6.80;67.60
1812;DHT22;904;47.814;11.134;2023-02-03T06:00:13;6.80;67.60
1812;DHT22;904;47.814;11.134;2023-02-03T06:02:41;6.80;68.10
1812;DHT22;904;47.814;11.134;2023-02-03T06:05:08;6.80;68.00
1812;DHT22;904;47.814;11.134;2023-02-03T06:07:35;6.80;67.80
1812;DHT22;904;47.814;11.134;2023-02-03T06:10:03;6.80;67.10
1812;DHT22;904;47.814;11.134;2023-02-03T06:12:32;6.80;67.00
1812;DHT22;904;47.814;11.134;2023-02-03T06:14:59;6.70;67.60
1812;DHT22;904;47.814;11.134;2023-02-03T06:17:28;6.70;67.50
1812;DHT22;904;47.814;11.134;2023-02-03T06:19:55;6.80;67.50
1812;DHT22;904;47.814;11.134;2023-02-03T06:22:22;6.80;67.20
1812;DHT22;904;47.814;11.134;2023-02-03T06:24:50;6.80;67.00
1812;DHT22;904;47.814;11.134;2023-02-03T06:27:20;6.80;67.30
1812;DHT22;904;47.814;11.134;2023-02-03T06:29:48;6.80;67.30
1812;DHT22;904;47.814;11.134;2023-02-03T06:32:15;6.80;66.70
1812;DHT22;904;47.814;11.134;2023-02-03T06:34:44;6.80;66.80
1812;DHT22;904;47.814;11.134;2023-02-03T06:37:11;6.70;67.10
1812;DHT22;904;47.814;11.134;2023-02-03T06:39:38;6.70;68.40
1812;DHT22;904;47.814;11.134;2023-02-03T06:42:05;6.70;67.10
1812;DHT22;904;47.814;11.134;2023-02-03T06:44:32;6.70;66.90
1812;DHT22;904;47.814;11.134;2023-02-03T06:46:59;6.80;66.90
1812;DHT22;904;47.814;11.134;2023-02-03T06:49:27;6.80;66.60
1812;DHT22;904;47.814;11.134;2023-02-03T06:51:56;6.80;66.40
1812;DHT22;904;47.814;11.134;2023-02-03T06:54:23;6.80;66.70
1812;DHT22;904;47.814;11.134;2023-02-03T06:56:50;6.80;66.90
1812;DHT22;904;47.814;11.134;2023-02-03T06:59:27;6.80;66.60
1812;DHT22;904;47.814;11.134;2023-02-03T07:01:54;6.80;66.30
1812;DHT22;904;47.814;11.134;2023-02-03T07:04:22;6.80;67.10
1812;DHT22;904;47.814;11.134;2023-02-03T07:06:51;6.80;66.80
1812;DHT22;904;47.814;11.134;2023-02-03T07:09:20;6.80;66.70
1812;DHT22;904;47.814;11.134;2023-02-03T07:11:49;6.90;66.30
1812;DHT22;904;47.814;11.134;2023-02-03T07:14:16;6.90;67.70
1812;DHT22;904;47.814;11.134;2023-02-03T07:16:44;6.80;66.40
1812;DHT22;904;47.814;11.134;2023-02-03T07:19:11;6.90;66.70
1812;DHT22;904;47.814;11.134;2023-02-03T07:21:38;6.80;67.10
1812;DHT22;904;47.814;11.134;2023-02-03T07:24:06;6.80;66.20
1812;DHT22;904;47.814;11.134;2023-02-03T07:26:34;6.90;66.20
1812;DHT22;904;47.814;11.134;2023-02-03T07:29:02;6.90;66.60
1812;DHT22;904;47.814;11.134;2023-02-03T07:31:29;6.90;66.30
1812;DHT22;904;47.814;11.134;2023-02-03T07:33:56;7.00;66.10
1812;DHT22;904;47.814;11.134;2023-02-03T07:36:23;6.90;66.00
1812;DHT22;904;47.814;11.134;2023-02-03T07:38:57;6.90;66.10
1812;DHT22;904;47.814;11.134;2023-02-03T07:41:26;7.00;65.90
1812;DHT22;904;47.814;11.134;2023-02-03T07:43:54;7.00;65.20
1812;DHT22;904;47.814;11.134;2023-02-03T07:46:22;7.00;65.30
1812;DHT22;904;47.814;11.134;2023-02-03T07:48:49;7.00;64.90
1812;DHT22;904;47.814;11.134;2023-02-03T07:51:18;7.00;65.00
1812;DHT22;904;47.814;11.134;2023-02-03T07:53:46;7.10;64.80
1812;DHT22;904;47.814;11.134;2023-02-03T07:56:13;7.10;64.70
1812;DHT22;904;47.814;11.134;2023-02-03T07:58:40;7.10;64.10
1812;DHT22;904;47.814;11.134;2023-02-03T08:01:14;7.10;64.40
1812;DHT22;904;47.814;11.134;2023-02-03T08:03:42;7.10;64.50
1812;DHT22;904;47.814;11.134;2023-02-03T08:06:09;7.10;64.70
1812;DHT22;904;47.814;11.134;2023-02-03T08:08:36;7.20;63.60
1812;DHT22;904;47.814;11.134;2023-02-03T08:11:03;7.20;63.20
1812;DHT22;904;47.814;11.134;2023-02-03T08:13:31;7.30;63.10
1812;DHT22;904;47.814;11.134;2023-02-03T08:15:58;7.30;63.30
1812;DHT22;904;47.814;11.134;2023-02-03T08:18:27;7.30;63.10
1812;DHT22;904;47.814;11.134;2023-02-03T08:20:54;7.30;63.00
1812;DHT22;904;47.814;11.134;2023-02-03T08:23:21;7.40;62.80
1812;DHT22;904;47.814;11.134;2023-02-03T08:25:50;7.40;63.00
1812;DHT22;904;47.814;11.134;2023-02-03T08:28:17;7.50;62.80
1812;DHT22;904;47.814;11.134;2023-02-03T08:30:44;7.60;62.20
1812;DHT22;904;47.814;11.134;2023-02-03T08:33:11;7.60;61.70
1812;DHT22;904;47.814;11.134;2023-02-03T08:35:40;7.60;61.80
1812;DHT22;904;47.814;11.134;2023-02-03T08:38:10;7.70;61.50
1812;DHT22;904;47.814;11.134;2023-02-03T08:40:37;7.70;60.60
1812;DHT22;904;47.814;11.134;2023-02-03T08:43:04;7.70;60.10
1812;DHT22;904;47.814;11.134;2023-02-03T08:45:31;7.80;60.50
1812;DHT22;904;47.814;11.134;2023-02-03T08:47:58;7.80;60.00
1812;DHT22;904;47.814;11.134;2023-02-03T08:50:25;7.80;60.30
1812;DHT22;904;47.814;11.134;2023-02-03T08:52:54;7.80;59.30
1812;DHT22;904;47.814;11.134;2023-02-03T08:55:21;7.90;58.70
1812;DHT22;904;47.814;11.134;2023-02-03T08:57:49;7.90;58.40
1812;DHT22;904;47.814;11.134;2023-02-03T09:00:16;7.90;58.60
1812;DHT22;904;47.814;11.134;2023-02-03T09:02:43;7.90;58.70
1812;DHT22;904;47.814;11.134;2023-02-03T09:05:11;7.90;58.50
1812;DHT22;904;47.814;11.134;2023-02-03T09:07:38;8.00;58.40
1812;DHT22;904;47.814;11.134;2023-02-03T09:10:07;8.00;58.70
1812;DHT22;904;47.814;11.134;2023-02-03T09:12:34;8.10;58.40
1812;DHT22;904;47.814;11.134;2023-02-03T09:15:22;8.20;58.10
1812;DHT22;904;47.814;11.134;2023-02-03T09:17:57;8.10;58.30
1812;DHT22;904;47.814;11.134;2023-02-03T09:20:24;8.20;58.00
1812;DHT22;904;47.814;11.134;2023-02-03T09:22:51;8.30;57.70
1812;DHT22;904;47.814;11.134;2023-02-03T09:25:21;8.30;57.70
1812;DHT22;904;47.814;11.134;2023-02-03T09:27:48;8.40;57.70
1812;DHT22;904;47.814;11.134;2023-02-03T09:30:15;8.50;56.90
1812;DHT22;904;47.814;11.134;2023-02-03T09:32:42;8.50;57.00
1812;DHT22;904;47.814;11.134;2023-02-03T09:35:13;8.70;56.20
1812;DHT22;904;47.814;11.134;2023-02-03T09:37:40;8.80;56.30
1812;DHT22;904;47.814;11.134;2023-02-03T09:40:10;8.90;55.50
1812;DHT22;904;47.814;11.134;2023-02-03T09:42:58;8.90;55.30
1812;DHT22;904;47.814;11.134;2023-02-03T09:45:29;9.10;55.00
1812;DHT22;904;47.814;11.134;2023-02-03T09:48:03;9.20;54.60
1812;DHT22;904;47.814;11.134;2023-02-03T09:50:34;9.30;54.30
1812;DHT22;904;47.814;11.134;2023-02-03T09:53:06;9.40;54.00
1812;DHT22;904;47.814;11.134;2023-02-03T09:55:37;9.50;53.40
1812;DHT22;904;47.814;11.134;2023-02-03T09:58:10;9.50;53.70
1812;DHT22;904;47.814;11.134;2023-02-03T10:00:41;9.70;52.50
1812;DHT22;904;47.814;11.134;2023-02-03T10:03:16;9.70;52.60
1812;DHT22;904;47.814;11.134;2023-02-03T10:11:34;9.80;52.60
1812;DHT22;904;47.814;11.134;2023-02-03T10:14:18;10.00;51.70
1812;DHT22;904;47.814;11.134;2023-02-03T10:19:43;10.10;49.90
1812;DHT22;904;47.814;11.134;2023-02-03T10:22:15;10.20;50.50
1812;DHT22;904;47.814;11.134;2023-02-03T10:24:47;10.50;50.30
1812;DHT22;904;47.814;11.134;2023-02-03T10:27:19;10.80;49.90
1812;DHT22;904;47.814;11.134;2023-02-03T10:29:54;11.00;48.70
1812;DHT22;904;47.814;11.134;2023-02-03T10:32:23;11.00;47.60
1812;DHT22;904;47.814;11.134;2023-02-03T10:34:55;11.10;48.00
1812;DHT22;904;47.814;11.134;2023-02-03T10:37:27;11.10;47.50
1812;DHT22;904;47.814;11.134;2023-02-03T10:39:56;11.10;47.90
1812;DHT22;904;47.814;11.134;2023-02-03T10:42:24;11.00;47.90
1812;DHT22;904;47.814;11.134;2023-02-03T10:45:13;10.80;47.50
1812;DHT22;904;47.814;11.134;2023-02-03T10:47:42;10.70;48.20
1812;DHT22;904;47.814;11.134;2023-02-03T10:50:15;10.60;48.40
1812;DHT22;904;47.814;11.134;2023-02-03T10:52:43;10.40;48.10
1812;DHT22;904;47.814;11.134;2023-02-03T10:55:28;10.20;48.90
1812;DHT22;904;47.814;11.134;2023-02-03T10:57:56;10.00;49.50
1812;DHT22;904;47.814;11.134;2023-02-03T11:00:28;9.90;50.60
1812;DHT22;904;47.814;11.134;2023-02-03T11:02:56;9.80;50.70
1812;DHT22;904;47.814;11.134;2023-02-03T11:05:24;9.70;51.10
1812;DHT22;904;47.814;11.134;2023-02-03T11:07:52;9.50;51.70
1812;DHT22;904;47.814;11.134;2023-02-03T11:10:27;9.50;52.10
1812;DHT22;904;47.814;11.134;2023-02-03T11:13:10;9.30;52.20
1812;DHT22;904;47.814;11.134;2023-02-03T11:15:43;9.30;51.60
1812;DHT22;904;47.814;11.134;2023-02-03T11:18:26;9.10;51.90
1812;DHT22;904;47.814;11.134;2023-02-03T11:20:58;9.10;52.70
1812;DHT22;904;47.814;11.134;2023-02-03T11:23:25;9.00;52.70
1812;DHT22;904;47.814;11.134;2023-02-03T11:25:52;8.90;53.30
1812;DHT22;904;47.814;11.134;2023-02-03T11:28:19;8.90;53.30
1812;DHT22;904;47.814;11.134;2023-02-03T11:30:54;8.80;53.70
1812;DHT22;904;47.814;11.134;2023-02-03T11:33:57;8.70;53.90
1812;DHT22;904;47.814;11.134;2023-02-03T11:36:26;8.70;53.80
1812;DHT22;904;47.814;11.134;2023-02-03T11:39:08;8.70;53.90
1812;DHT22;904;47.814;11.134;2023-02-03T11:41:37;8.70;54.30
1812;DHT22;904;47.814;11.134;2023-02-03T11:44:10;8.60;54.30
1812;DHT22;904;47.814;11.134;2023-02-03T11:46:39;8.70;54.00
1812;DHT22;904;47.814;11.134;2023-02-03T11:49:12;8.70;54.00
1812;DHT22;904;47.814;11.134;2023-02-03T11:51:49;8.60;54.50
1812;DHT22;904;47.814;11.134;2023-02-03T11:54:30;8.50;54.00
1812;DHT22;904;47.814;11.134;2023-02-03T11:57:15;8.50;54.70
1812;DHT22;904;47.814;11.134;2023-02-03T11:59:53;8.60;54.60
1812;DHT22;904;47.814;11.134;2023-02-03T12:02:43;8.60;54.60
1812;DHT22;904;47.814;11.134;2023-02-03T12:05:36;8.70;54.50
1812;DHT22;904;47.814;11.134;2023-02-03T12:08:12;8.70;54.30
1812;DHT22;904;47.814;11.134;2023-02-03T12:10:58;8.70;54.00
1812;DHT22;904;47.814;11.134;2023-02-03T12:13:52;8.70;54.40
1812;DHT22;904;47.814;11.134;2023-02-03T12:16:40;8.70;54.50
1812;DHT22;904;47.814;11.134;2023-02-03T12:19:20;8.70;54.60
1812;DHT22;904;47.814;11.134;2023-02-03T12:21:59;8.70;54.70
1812;DHT22;904;47.814;11.134;2023-02-03T12:24:34;8.70;55.00
1812;DHT22;904;47.814;11.134;2023-02-03T12:27:13;8.60;55.40
1812;DHT22;904;47.814;11.134;2023-02-03T12:29:48;8.60;55.60
1812;DHT22;904;47.814;11.134;2023-02-03T12:32:32;8.60;55.30
1812;DHT22;904;47.814;11.134;2023-02-03T12:35:10;8.60;55.30
1812;DHT22;904;47.814;11.134;2023-02-03T12:37:44;8.70;55.10
1812;DHT22;904;47.814;11.134;2023-02-03T12:40:16;8.80;55.20
1812;DHT22;904;47.814;11.134;2023-02-03T12:42:49;8.80;55.10
1812;DHT22;904;47.814;11.134;2023-02-03T12:45:19;8.90;54.40
1812;DHT22;904;47.814;11.134;2023-02-03T12:47:51;9.00;53.90
1812;DHT22;904;47.814;11.134;2023-02-03T12:50:28;9.00;53.90
1812;DHT22;904;47.814;11.134;2023-02-03T12:53:01;9.00;53.90
1812;DHT22;904;47.814;11.134;2023-02-03T12:55:34;9.00;53.90
1812;DHT22;904;47.814;11.134;2023-02-03T12:58:05;9.10;53.90
1812;DHT22;904;47.814;11.134;2023-02-03T13:00:39;9.20;53.90
1812;DHT22;904;47.814;11.134;2023-02-03T13:03:14;9.40;53.60
1812;DHT22;904;47.814;11.134;2023-02-03T13:05:48;9.60;53.40
1812;DHT22;904;47.814;11.134;2023-02-03T13:08:22;9.70;52.40
1812;DHT22;904;47.814;11.134;2023-02-03T13:10:55;9.80;52.70
1812;DHT22;904;47.814;11.134;2023-02-03T13:13:32;10.10;51.40
1812;DHT22;904;47.814;11.134;2023-02-03T13:16:01;10.30;51.10
1812;DHT22;904;47.814;11.134;2023-02-03T13:18:34;10.40;50.70
1812;DHT22;904;47.814;11.134;2023-02-03T13:21:04;10.40;50.30
1812;DHT22;904;47.814;11.134;2023-02-03T13:23:31;10.20;50.20
1812;DHT22;904;47.814;11.134;2023-02-03T13:29:08;10.10;50.40
1812;DHT22;904;47.814;11.134;2023-02-03T13:31:48;10.00;50.50
1812;DHT22;904;47.814;11.134;2023-02-03T13:34:42;10.00;50.40
1812;DHT22;904;47.814;11.134;2023-02-03T13:37:25;10.00;50.00
1812;DHT22;904;47.814;11.134;2023-02-03T13:40:13;9.90;51.30
1812;DHT22;904;47.814;11.134;2023-02-03T13:42:53;9.70;51.90
1812;DHT22;904;47.814;11.134;2023-02-03T13:45:26;9.70;52.50
1812;DHT22;904;47.814;11.134;2023-02-03T13:47:58;9.70;52.50
1812;DHT22;904;47.814;11.134;2023-02-03T13:50:29;9.70;51.80
1812;DHT22;904;47.814;11.134;2023-02-03T13:53:00;9.60;52.30
1812;DHT22;904;47.814;11.134;2023-02-03T13:55:33;9.60;52.40
1812;DHT22;904;47.814;11.134;2023-02-03T13:58:01;9.60;52.20
1812;DHT22;904;47.814;11.134;2023-02-03T14:00:58;9.60;52.00
1812;DHT22;904;47.814;11.134;2023-02-03T14:03:45;9.60;52.30
1812;DHT22;904;47.814;11.134;2023-02-03T14:09:45;9.50;52.30
1812;DHT22;904;47.814;11.134;2023-02-03T14:12:32;9.50;52.70
1812;DHT22;904;47.814;11.134;2023-02-03T14:15:20;9.40;52.80
1812;DHT22;904;47.814;11.134;2023-02-03T14:26:35;9.30;52.70
1812;DHT22;904;47.814;11.134;2023-02-03T14:29:04;9.20;53.00
1812;DHT22;904;47.814;11.134;2023-02-03T14:31:52;9.00;53.30
1812;DHT22;904;47.814;11.134;2023-02-03T14:34:28;9.00;53.90
1812;DHT22;904;47.814;11.134;2023-02-03T14:36:56;8.90;53.80
1812;DHT22;904;47.814;11.134;2023-02-03T14:46:06;8.70;54.50
1812;DHT22;904;47.814;11.134;2023-02-03T14:49:03;8.70;54.00
1812;DHT22;904;47.814;11.134;2023-02-03T14:52:04;8.60;54.40
1812;DHT22;904;47.814;11.134;2023-02-03T14:57:37;8.60;54.30
1812;DHT22;904;47.814;11.134;2023-02-03T15:00:25;8.60;54.20
1812;DHT22;904;47.814;11.134;2023-02-03T15:03:26;8.50;54.60
1812;DHT22;904;47.814;11.134;2023-02-03T15:05:58;8.50;54.70
1812;DHT22;904;47.814;11.134;2023-02-03T15:08:37;8.50;54.90
1812;DHT22;904;47.814;11.134;2023-02-03T15:11:41;8.50;54.90
1812;DHT22;904;47.814;11.134;2023-02-03T15:14:21;8.40;55.30
1812;DHT22;904;47.814;11.134;2023-02-03T15:16:53;8.40;55.00
1812;DHT22;904;47.814;11.134;2023-02-03T15:19:24;8.30;55.50
1812;DHT22;904;47.814;11.134;2023-02-03T15:21:52;8.30;55.60
1812;DHT22;904;47.814;11.134;2023-02-03T15:24:20;8.30;55.70
1812;DHT22;904;47.814;11.134;2023-02-03T15:26:51;8.20;55.90
1812;DHT22;904;47.814;11.134;2023-02-03T15:29:26;8.20;56.00
1812;DHT22;904;47.814;11.134;2023-02-03T15:32:07;8.20;56.30
1812;DHT22;904;47.814;11.134;2023-02-03T15:34:40;8.20;56.10
1812;DHT22;904;47.814;11.134;2023-02-03T15:37:15;8.20;56.10
1812;DHT22;904;47.814;11.134;2023-02-03T15:39:58;8.10;56.10
1812;DHT22;904;47.814;11.134;2023-02-03T15:42:28;8.10;56.10
1812;DHT22;904;47.814;11.134;2023-02-03T15:45:03;8.00;56.30
1812;DHT22;904;47.814;11.134;2023-02-03T15:47:34;8.00;56.50
1812;DHT22;904;47.814;11.134;2023-02-03T15:50:10;7.90;56.40
1812;DHT22;904;47.814;11.134;2023-02-03T15:52:43;7.90;56.90
1812;DHT22;904;47.814;11.134;2023-02-03T15:55:17;7.90;57.10
1812;DHT22;904;47.814;11.134;2023-02-03T15:57:47;7.90;56.80
1812;DHT22;904;47.814;11.134;2023-02-03T16:00:34;7.90;57.10
1812;DHT22;904;47.814;11.134;2023-02-03T16:03:05;7.80;57.40
1812;DHT22;904;47.814;11.134;2023-02-03T16:05:41;7.80;57.70
1812;DHT22;904;47.814;11.134;2023-02-03T16:08:36;7.80;57.50
1812;DHT22;904;47.814;11.134;2023-02-03T16:11:20;7.80;57.80
1812;DHT22;904;47.814;11.134;2023-02-03T16:13:48;7.90;57.90
1812;DHT22;904;47.814;11.134;2023-02-03T16:16:19;7.90;57.70
1812;DHT22;904;47.814;11.134;2023-02-03T16:18:55;7.90;57.80
1812;DHT22;904;47.814;11.134;2023-02-03T16:21:33;7.80;57.70
1812;DHT22;904;47.814;11.134;2023-02-03T16:24:01;7.80;57.90
1812;DHT22;904;47.814;11.134;2023-02-03T16:26:30;7.80;58.30
1812;DHT22;904;47.814;11.134;2023-02-03T16:29:13;7.80;57.90
1812;DHT22;904;47.814;11.134;2023-02-03T16:32:16;7.80;58.10
1812;DHT22;904;47.814;11.134;2023-02-03T16:35:01;7.80;57.90
1812;DHT22;904;47.814;11.134;2023-02-03T16:37:47;7.80;58.30
1812;DHT22;904;47.814;11.134;2023-02-03T16:40:34;7.80;58.10
1812;DHT22;904;47.814;11.134;2023-02-03T16:43:30;7.80;58.50
1812;DHT22;904;47.814;11.134;2023-02-03T16:46:15;7.80;58.40
1812;DHT22;904;47.814;11.134;2023-02-03T16:48:59;7.80;58.70
1812;DHT22;904;47.814;11.134;2023-02-03T16:51:44;7.80;58.50
1812;DHT22;904;47.814;11.134;2023-02-03T16:54:13;7.80;58.70
1812;DHT22;904;47.814;11.134;2023-02-03T16:56:42;7.70;58.80
1812;DHT22;904;47.814;11.134;2023-02-03T16:59:08;7.80;59.10
1812;DHT22;904;47.814;11.134;2023-02-03T17:01:36;7.80;59.10
1812;DHT22;904;47.814;11.134;2023-02-03T17:04:03;7.80;59.00
1812;DHT22;904;47.814;11.134;2023-02-03T17:06:30;7.80;59.20
1812;DHT22;904;47.814;11.134;2023-02-03T17:08:59;7.80;59.20
1812;DHT22;904;47.814;11.134;2023-02-03T17:11:27;7.80;59.10
1812;DHT22;904;47.814;11.134;2023-02-03T17:13:56;7.80;59.40
1812;DHT22;904;47.814;11.134;2023-02-03T17:16:24;7.80;59.30
1812;DHT22;904;47.814;11.134;2023-02-03T17:18:52;7.80;59.20
1812;DHT22;904;47.814;11.134;2023-02-03T17:21:22;7.80;59.30
1812;DHT22;904;47.814;11.134;2023-02-03T17:23:50;7.90;59.40
1812;DHT22;904;47.814;11.134;2023-02-03T17:26:17;7.90;59.30
1812;DHT22;904;47.814;11.134;2023-02-03T17:28:46;7.80;59.10